Bost/Laskar, Afghanistan
Current Conditions -  °F | °C
As of 11:55 AM on Saturday 25 Oct 2014 (Local Time) from KQXT Reporting Station
Few Clouds Few Clouds  
Wind Chill: 88°   Ceiling: Unl
Heat Index: 88°   Visibility: 6mi
Dew Point: 27°   Wind: 2mph
Humidity: 11%   Direction: 100°E
Pressure: 30.01"   Gusts: NA
Location:  31.55°N, 64.37°E
Report Text: KQXT 250755Z 10002KT 9999 FEW150 FEW200 31/M03 A3001 RMK SLP130 WND DATA ESTMD ALSTG/SLP ESTMD Q1016
Loading
Personal Weather Stations






























Interactive Weather Map
Tropical Storm Tracking
New forecast layout! Learn more

10-Day Weather Forecast

Advertisements
Track Severe Weather on mobile